sensor_id;sensor_type;location;lat;lon;timestamp;pressure;altitude;pressure_sealevel;temperature;humidity
83512;BME280;73446;0.000;0.000;2024-01-27T00:02:27;100513.06;;;20.01;31.01
83512;BME280;73446;0.000;0.000;2024-01-27T00:05:10;100518.38;;;20.01;33.28
83512;BME280;73446;0.000;0.000;2024-01-27T00:07:54;100513.50;;;19.98;33.41
83512;BME280;73446;0.000;0.000;2024-01-27T00:10:39;100514.31;;;19.99;32.18
83512;BME280;73446;0.000;0.000;2024-01-27T00:13:23;100515.13;;;19.99;31.85
83512;BME280;73446;0.000;0.000;2024-01-27T00:16:07;100503.66;;;19.99;31.97
83512;BME280;73446;0.000;0.000;2024-01-27T00:18:51;100512.25;;;20.01;31.80
83512;BME280;73446;0.000;0.000;2024-01-27T00:21:35;100510.59;;;20.00;31.67
83512;BME280;73446;0.000;0.000;2024-01-27T00:24:19;100515.94;;;20.00;31.44
83512;BME280;73446;0.000;0.000;2024-01-27T00:27:03;100522.91;;;20.01;31.14
83512;BME280;73446;0.000;0.000;2024-01-27T00:29:47;100515.94;;;20.00;30.32
83512;BME280;73446;0.000;0.000;2024-01-27T00:32:31;100528.25;;;20.01;30.68
83512;BME280;73446;0.000;0.000;2024-01-27T00:35:17;100523.72;;;20.01;30.56
83512;BME280;73446;0.000;0.000;2024-01-27T00:38:02;100522.91;;;20.01;30.50
83512;BME280;73446;0.000;0.000;2024-01-27T00:40:46;100529.06;;;20.01;30.15
83512;BME280;73446;0.000;0.000;2024-01-27T00:43:30;100525.81;;;19.99;30.00
83512;BME280;73446;0.000;0.000;2024-01-27T00:46:14;100525.56;;;20.01;31.97
83512;BME280;73446;0.000;0.000;2024-01-27T00:48:58;100519.88;;;19.97;33.58
83512;BME280;73446;0.000;0.000;2024-01-27T00:51:42;100526.53;;;19.95;33.90
83512;BME280;73446;0.000;0.000;2024-01-27T00:54:26;100534.53;;;19.95;33.85
83512;BME280;73446;0.000;0.000;2024-01-27T00:57:11;100537.19;;;19.95;34.11
83512;BME280;73446;0.000;0.000;2024-01-27T00:59:55;100537.44;;;19.93;34.18
83512;BME280;73446;0.000;0.000;2024-01-27T01:02:39;100532.91;;;19.94;32.26
83512;BME280;73446;0.000;0.000;2024-01-27T01:05:24;100539.88;;;19.95;31.23
83512;BME280;73446;0.000;0.000;2024-01-27T01:08:08;100536.16;;;19.96;30.97
83512;BME280;73446;0.000;0.000;2024-01-27T01:10:52;100537.78;;;19.97;30.37
83512;BME280;73446;0.000;0.000;2024-01-27T01:13:36;100540.19;;;19.98;30.02
83512;BME280;73446;0.000;0.000;2024-01-27T01:16:20;100541.00;;;19.99;30.08
83512;BME280;73446;0.000;0.000;2024-01-27T01:19:04;100542.03;;;19.98;30.03
83512;BME280;73446;0.000;0.000;2024-01-27T01:21:48;100547.38;;;19.98;29.62
83512;BME280;73446;0.000;0.000;2024-01-27T01:24:33;100550.63;;;20.00;29.96
83512;BME280;73446;0.000;0.000;2024-01-27T01:27:17;100548.19;;;19.98;29.72
83512;BME280;73446;0.000;0.000;2024-01-27T01:30:03;100551.13;;;19.97;31.82
83512;BME280;73446;0.000;0.000;2024-01-27T01:32:47;100554.25;;;19.94;33.05
83512;BME280;73446;0.000;0.000;2024-01-27T01:35:31;100557.16;;;19.92;33.51
83512;BME280;73446;0.000;0.000;2024-01-27T01:38:15;100557.97;;;19.92;33.91
83512;BME280;73446;0.000;0.000;2024-01-27T01:40:58;100569.66;;;19.91;33.75
83512;BME280;73446;0.000;0.000;2024-01-27T01:43:43;100568.84;;;19.91;34.16
83512;BME280;73446;0.000;0.000;2024-01-27T01:46:27;100574.41;;;19.89;34.17
83512;BME280;73446;0.000;0.000;2024-01-27T01:49:14;100579.75;;;19.89;31.44
83512;BME280;73446;0.000;0.000;2024-01-27T01:51:58;100578.50;;;19.92;30.69
83512;BME280;73446;0.000;0.000;2024-01-27T01:54:42;100591.59;;;19.94;30.35
83512;BME280;73446;0.000;0.000;2024-01-27T01:57:26;100593.22;;;19.95;29.78
83512;BME280;73446;0.000;0.000;2024-01-27T02:00:11;100588.47;;;19.97;29.60
83512;BME280;73446;0.000;0.000;2024-01-27T02:02:55;100596.50;;;19.97;29.60
83512;BME280;73446;0.000;0.000;2024-01-27T02:05:40;100600.19;;;19.96;29.66
83512;BME280;73446;0.000;0.000;2024-01-27T02:08:24;100605.53;;;19.96;29.11
83512;BME280;73446;0.000;0.000;2024-01-27T02:11:08;100604.72;;;19.95;30.47
83512;BME280;73446;0.000;0.000;2024-01-27T02:13:52;100596.13;;;19.93;32.02
83512;BME280;73446;0.000;0.000;2024-01-27T02:16:37;100604.34;;;19.91;31.49
83512;BME280;73446;0.000;0.000;2024-01-27T02:19:21;100599.84;;;19.92;30.37
83512;BME280;73446;0.000;0.000;2024-01-27T02:22:05;100600.66;;;19.92;29.99
83512;BME280;73446;0.000;0.000;2024-01-27T02:24:49;100605.97;;;19.92;30.11
83512;BME280;73446;0.000;0.000;2024-01-27T02:27:33;100614.56;;;19.95;29.50
83512;BME280;73446;0.000;0.000;2024-01-27T02:30:17;100612.94;;;19.94;29.56
83512;BME280;73446;0.000;0.000;2024-01-27T02:33:01;100608.44;;;19.94;29.46
83512;BME280;73446;0.000;0.000;2024-01-27T02:35:45;100613.75;;;19.94;29.65
83512;BME280;73446;0.000;0.000;2024-01-27T02:38:32;100603.91;;;19.95;29.44
83512;BME280;73446;0.000;0.000;2024-01-27T02:41:15;100602.06;;;19.95;29.00
83512;BME280;73446;0.000;0.000;2024-01-27T02:44:00;100611.09;;;19.94;28.92
83512;BME280;73446;0.000;0.000;2024-01-27T02:46:44;100610.06;;;19.95;28.96
83512;BME280;73446;0.000;0.000;2024-01-27T02:49:28;100612.72;;;19.95;29.21
83512;BME280;73446;0.000;0.000;2024-01-27T02:52:11;100612.13;;;19.93;31.26
83512;BME280;73446;0.000;0.000;2024-01-27T02:54:58;100620.38;;;19.91;31.76
83512;BME280;73446;0.000;0.000;2024-01-27T02:57:42;100618.75;;;19.90;30.20
83512;BME280;73446;0.000;0.000;2024-01-27T03:00:26;100619.56;;;19.91;29.55
83512;BME280;73446;0.000;0.000;2024-01-27T03:03:09;100624.66;;;19.92;29.58
83512;BME280;73446;0.000;0.000;2024-01-27T03:05:53;100620.38;;;19.91;29.24
83512;BME280;73446;0.000;0.000;2024-01-27T03:08:37;100615.84;;;19.92;29.22
83512;BME280;73446;0.000;0.000;2024-01-27T03:11:21;100616.66;;;19.92;29.22
83512;BME280;73446;0.000;0.000;2024-01-27T03:14:05;100615.63;;;19.94;28.85
83512;BME280;73446;0.000;0.000;2024-01-27T03:16:50;100614.00;;;19.92;28.73
83512;BME280;73446;0.000;0.000;2024-01-27T03:19:33;100617.25;;;19.95;28.59
83512;BME280;73446;0.000;0.000;2024-01-27T03:22:17;100616.44;;;19.94;28.51
83512;BME280;73446;0.000;0.000;2024-01-27T03:25:02;100621.78;;;19.94;28.36
83512;BME280;73446;0.000;0.000;2024-01-27T03:27:46;100624.44;;;19.94;28.63
83512;BME280;73446;0.000;0.000;2024-01-27T03:30:30;100617.47;;;19.93;30.62
83512;BME280;73446;0.000;0.000;2024-01-27T03:33:14;100618.75;;;19.90;31.37
83512;BME280;73446;0.000;0.000;2024-01-27T03:35:58;100619.19;;;19.87;31.92
83512;BME280;73446;0.000;0.000;2024-01-27T03:38:42;100626.38;;;19.87;31.93
83512;BME280;73446;0.000;0.000;2024-01-27T03:41:26;100627.41;;;19.86;32.18
83512;BME280;73446;0.000;0.000;2024-01-27T03:44:11;100622.31;;;19.84;32.25
83512;BME280;73446;0.000;0.000;2024-01-27T03:46:55;100632.97;;;19.84;30.98
83512;BME280;73446;0.000;0.000;2024-01-27T03:49:39;100625.56;;;19.86;29.67
83512;BME280;73446;0.000;0.000;2024-01-27T03:52:23;100632.31;;;19.89;29.41
83512;BME280;73446;0.000;0.000;2024-01-27T03:55:07;100640.09;;;19.90;28.54
83512;BME280;73446;0.000;0.000;2024-01-27T03:57:51;100639.03;;;19.91;28.48
83512;BME280;73446;0.000;0.000;2024-01-27T04:00:34;100635.34;;;19.92;28.31
83512;BME280;73446;0.000;0.000;2024-01-27T04:03:18;100632.66;;;19.92;28.67
83512;BME280;73446;0.000;0.000;2024-01-27T04:06:03;100642.53;;;19.92;28.47
83512;BME280;73446;0.000;0.000;2024-01-27T04:08:47;100646.22;;;19.91;28.25
83512;BME280;73446;0.000;0.000;2024-01-27T04:11:31;100660.38;;;19.91;28.15
83512;BME280;73446;0.000;0.000;2024-01-27T04:14:15;100648.31;;;19.89;30.48
83512;BME280;73446;0.000;0.000;2024-01-27T04:16:59;100658.16;;;19.88;31.35
83512;BME280;73446;0.000;0.000;2024-01-27T04:19:43;100657.81;;;19.85;31.47
83512;BME280;73446;0.000;0.000;2024-01-27T04:22:27;100657.00;;;19.84;31.79
83512;BME280;73446;0.000;0.000;2024-01-27T04:25:12;100653.72;;;19.82;31.69
83512;BME280;73446;0.000;0.000;2024-01-27T04:27:56;100652.91;;;19.82;31.79
83512;BME280;73446;0.000;0.000;2024-01-27T04:30:40;100657.44;;;19.81;32.06
83512;BME280;73446;0.000;0.000;2024-01-27T04:33:24;100666.25;;;19.82;30.47
83512;BME280;73446;0.000;0.000;2024-01-27T04:36:08;100657.00;;;19.84;29.24
83512;BME280;73446;0.000;0.000;2024-01-27T04:38:53;100659.22;;;19.87;28.89
83512;BME280;73446;0.000;0.000;2024-01-27T04:41:43;100661.88;;;19.87;28.36
83512;BME280;73446;0.000;0.000;2024-01-27T04:44:27;100667.81;;;19.89;27.88
83512;BME280;73446;0.000;0.000;2024-01-27T04:47:11;100665.13;;;19.89;28.15
83512;BME280;73446;0.000;0.000;2024-01-27T04:49:55;100667.00;;;19.89;27.98
83512;BME280;73446;0.000;0.000;2024-01-27T04:52:39;100675.81;;;19.89;28.08
83512;BME280;73446;0.000;0.000;2024-01-27T04:55:25;100672.09;;;19.90;28.61
83512;BME280;73446;0.000;0.000;2024-01-27T04:58:09;100666.41;;;19.87;30.63
83512;BME280;73446;0.000;0.000;2024-01-27T05:00:53;100662.31;;;19.84;30.65
83512;BME280;73446;0.000;0.000;2024-01-27T05:03:37;100666.84;;;19.84;29.46
83512;BME280;73446;0.000;0.000;2024-01-27T05:06:21;100660.47;;;19.85;29.04
83512;BME280;73446;0.000;0.000;2024-01-27T05:09:05;100653.28;;;19.85;28.85
83512;BME280;73446;0.000;0.000;2024-01-27T05:11:49;100654.91;;;19.86;28.72
83512;BME280;73446;0.000;0.000;2024-01-27T05:14:36;100654.91;;;19.86;28.75
83512;BME280;73446;0.000;0.000;2024-01-27T05:17:20;100655.72;;;19.87;28.06
83512;BME280;73446;0.000;0.000;2024-01-27T05:20:05;100656.53;;;19.87;28.16
83512;BME280;73446;0.000;0.000;2024-01-27T05:22:49;100660.84;;;19.88;27.87
83512;BME280;73446;0.000;0.000;2024-01-27T05:25:33;100661.06;;;19.87;27.70
83512;BME280;73446;0.000;0.000;2024-01-27T05:28:17;100668.84;;;19.88;27.45
83512;BME280;73446;0.000;0.000;2024-01-27T05:31:01;100668.84;;;19.88;27.71
83512;BME280;73446;0.000;0.000;2024-01-27T05:33:45;100665.13;;;19.89;28.07
83512;BME280;73446;0.000;0.000;2024-01-27T05:36:29;100664.78;;;19.86;30.38
83512;BME280;73446;0.000;0.000;2024-01-27T05:39:13;100662.31;;;19.84;30.38
83512;BME280;73446;0.000;0.000;2024-01-27T05:41:57;100663.38;;;19.83;29.06
83512;BME280;73446;0.000;0.000;2024-01-27T05:44:42;100656.16;;;19.84;28.43
83512;BME280;73446;0.000;0.000;2024-01-27T05:47:26;100654.09;;;19.86;28.59
83512;BME280;73446;0.000;0.000;2024-01-27T05:50:10;100660.25;;;19.86;27.73
83512;BME280;73446;0.000;0.000;2024-01-27T05:52:54;100667.44;;;19.86;27.66
83512;BME280;73446;0.000;0.000;2024-01-27T05:55:38;100665.59;;;19.86;27.89
83512;BME280;73446;0.000;0.000;2024-01-27T05:58:22;100671.72;;;19.87;27.54
83512;BME280;73446;0.000;0.000;2024-01-27T06:01:06;100666.41;;;19.87;27.58
83512;BME280;73446;0.000;0.000;2024-01-27T06:03:52;100668.03;;;19.88;27.38
83512;BME280;73446;0.000;0.000;2024-01-27T06:06:40;100673.38;;;19.88;27.66
83512;BME280;73446;0.000;0.000;2024-01-27T06:09:24;100671.50;;;19.88;26.98
83512;BME280;73446;0.000;0.000;2024-01-27T06:12:08;100668.25;;;19.86;29.97
83512;BME280;73446;0.000;0.000;2024-01-27T06:14:52;100680.41;;;19.82;30.72
83512;BME280;73446;0.000;0.000;2024-01-27T06:17:36;100679.59;;;19.82;29.12
83512;BME280;73446;0.000;0.000;2024-01-27T06:20:20;100682.03;;;19.83;28.47
83512;BME280;73446;0.000;0.000;2024-01-27T06:23:04;100682.03;;;19.83;28.22
83512;BME280;73446;0.000;0.000;2024-01-27T06:25:49;100683.66;;;19.84;27.56
83512;BME280;73446;0.000;0.000;2024-01-27T06:28:33;100685.28;;;19.85;27.75
83512;BME280;73446;0.000;0.000;2024-01-27T06:31:18;100685.28;;;19.85;27.57
83512;BME280;73446;0.000;0.000;2024-01-27T06:34:02;100685.28;;;19.85;27.51
83512;BME280;73446;0.000;0.000;2024-01-27T06:36:46;100684.25;;;19.86;27.66
83512;BME280;73446;0.000;0.000;2024-01-27T06:39:31;100683.44;;;19.86;27.17
83512;BME280;73446;0.000;0.000;2024-01-27T06:42:15;100691.81;;;19.89;26.73
83512;BME280;73446;0.000;0.000;2024-01-27T06:44:59;100691.97;;;19.95;27.72
83512;BME280;73446;0.000;0.000;2024-01-27T06:47:43;100688.97;;;20.03;30.19
83512;BME280;73446;0.000;0.000;2024-01-27T06:50:27;100686.50;;;20.01;31.19
83512;BME280;73446;0.000;0.000;2024-01-27T06:53:11;100680.34;;;19.89;32.27
83512;BME280;73446;0.000;0.000;2024-01-27T06:55:55;100681.16;;;19.89;30.81
83512;BME280;73446;0.000;0.000;2024-01-27T06:58:39;100683.13;;;19.94;30.33
83512;BME280;73446;0.000;0.000;2024-01-27T07:01:23;100681.16;;;20.01;29.82
83512;BME280;73446;0.000;0.000;2024-01-27T07:04:07;100681.91;;;20.08;31.78
83512;BME280;73446;0.000;0.000;2024-01-27T07:06:50;100682.50;;;20.10;31.63
83512;BME280;73446;0.000;0.000;2024-01-27T07:09:35;100675.31;;;20.11;31.07
83512;BME280;73446;0.000;0.000;2024-01-27T07:12:19;100683.91;;;20.13;31.44
83512;BME280;73446;0.000;0.000;2024-01-27T07:15:03;100679.59;;;20.12;31.08
83512;BME280;73446;0.000;0.000;2024-01-27T07:17:47;100680.06;;;20.09;30.77
83512;BME280;73446;0.000;0.000;2024-01-27T07:20:31;100690.72;;;20.09;31.03
83512;BME280;73446;0.000;0.000;2024-01-27T07:23:14;100688.28;;;20.07;31.23
83512;BME280;73446;0.000;0.000;2024-01-27T07:25:59;100683.75;;;20.08;31.15
83512;BME280;73446;0.000;0.000;2024-01-27T07:28:46;100678.28;;;20.03;31.41
83512;BME280;73446;0.000;0.000;2024-01-27T07:31:30;100687.66;;;19.94;32.28
83512;BME280;73446;0.000;0.000;2024-01-27T07:34:14;100693.44;;;19.90;32.72
83512;BME280;73446;0.000;0.000;2024-01-27T07:36:58;100684.63;;;19.90;32.53
83512;BME280;73446;0.000;0.000;2024-01-27T07:39:43;100687.53;;;19.88;33.33
83512;BME280;73446;0.000;0.000;2024-01-27T07:42:27;100687.75;;;19.87;32.88
83512;BME280;73446;0.000;0.000;2024-01-27T07:45:11;100684.25;;;19.86;33.44
83512;BME280;73446;0.000;0.000;2024-01-27T07:47:55;100678.91;;;19.86;33.47
83512;BME280;73446;0.000;0.000;2024-01-27T07:50:40;100690.63;;;19.85;34.15
83512;BME280;73446;0.000;0.000;2024-01-27T07:53:24;100692.25;;;19.86;33.32
83512;BME280;73446;0.000;0.000;2024-01-27T07:56:07;100686.94;;;19.86;34.32
83512;BME280;73446;0.000;0.000;2024-01-27T07:58:51;100688.56;;;19.87;34.44
83512;BME280;73446;0.000;0.000;2024-01-27T08:01:36;100688.34;;;19.89;33.73
83512;BME280;73446;0.000;0.000;2024-01-27T08:04:20;100697.16;;;19.89;33.63
83512;BME280;73446;0.000;0.000;2024-01-27T08:07:04;100693.88;;;19.87;34.58
83512;BME280;73446;0.000;0.000;2024-01-27T08:09:53;100682.41;;;19.87;33.52
83512;BME280;73446;0.000;0.000;2024-01-27T08:12:37;100680.56;;;19.87;33.92
83512;BME280;73446;0.000;0.000;2024-01-27T08:15:22;100675.44;;;19.86;34.31
83512;BME280;73446;0.000;0.000;2024-01-27T08:18:06;100671.97;;;19.85;35.25
83512;BME280;73446;0.000;0.000;2024-01-27T08:20:50;100684.84;;;19.88;34.57
83512;BME280;73446;0.000;0.000;2024-01-27T08:23:35;100691.00;;;19.89;34.45
83512;BME280;73446;0.000;0.000;2024-01-27T08:26:19;100686.47;;;19.89;35.06
83512;BME280;73446;0.000;0.000;2024-01-27T08:29:04;100684.63;;;19.90;34.62
83512;BME280;73446;0.000;0.000;2024-01-27T08:31:49;100689.75;;;19.91;35.13
83512;BME280;73446;0.000;0.000;2024-01-27T08:34:33;100688.09;;;19.90;35.25
83512;BME280;73446;0.000;0.000;2024-01-27T08:37:20;100691.38;;;19.92;34.97
83512;BME280;73446;0.000;0.000;2024-01-27T08:40:07;100691.38;;;19.92;35.19
83512;BME280;73446;0.000;0.000;2024-01-27T08:42:51;100690.34;;;19.94;34.97
83512;BME280;73446;0.000;0.000;2024-01-27T08:45:37;100699.97;;;19.95;34.28
83512;BME280;73446;0.000;0.000;2024-01-27T08:48:21;100694.41;;;19.96;35.00
83512;BME280;73446;0.000;0.000;2024-01-27T08:51:04;100683.72;;;19.96;35.06
83512;BME280;73446;0.000;0.000;2024-01-27T08:53:48;100690.44;;;19.99;35.14
83512;BME280;73446;0.000;0.000;2024-01-27T08:56:32;100699.84;;;20.01;35.40
83512;BME280;73446;0.000;0.000;2024-01-27T08:59:16;100691.25;;;19.99;35.09
83512;BME280;73446;0.000;0.000;2024-01-27T09:02:01;100707.28;;;19.99;35.48
83512;BME280;73446;0.000;0.000;2024-01-27T09:04:45;100705.41;;;20.00;35.27
83512;BME280;73446;0.000;0.000;2024-01-27T09:07:29;100701.59;;;19.96;35.88
83512;BME280;73446;0.000;0.000;2024-01-27T09:10:13;100697.31;;;19.95;35.87
83512;BME280;73446;0.000;0.000;2024-01-27T09:12:59;100694.41;;;19.96;35.93
83512;BME280;73446;0.000;0.000;2024-01-27T09:15:42;100694.41;;;19.96;35.81
83512;BME280;73446;0.000;0.000;2024-01-27T09:18:26;100691.47;;;19.98;35.91
83512;BME280;73446;0.000;0.000;2024-01-27T09:21:11;100700.31;;;19.98;35.25
83512;BME280;73446;0.000;0.000;2024-01-27T09:23:55;100698.44;;;19.99;34.75
83512;BME280;73446;0.000;0.000;2024-01-27T09:26:39;100696.81;;;19.98;34.60
83512;BME280;73446;0.000;0.000;2024-01-27T09:29:23;100702.97;;;19.98;35.28
83512;BME280;73446;0.000;0.000;2024-01-27T09:32:08;100703.78;;;19.99;34.54
83512;BME280;73446;0.000;0.000;2024-01-27T09:34:52;100705.63;;;19.98;34.55
83512;BME280;73446;0.000;0.000;2024-01-27T09:37:37;100698.44;;;19.99;34.31
83512;BME280;73446;0.000;0.000;2024-01-27T09:40:21;100702.97;;;19.98;34.17
83512;BME280;73446;0.000;0.000;2024-01-27T09:43:05;100708.56;;;19.97;34.17
83512;BME280;73446;0.000;0.000;2024-01-27T09:45:50;100699.03;;;20.01;34.01
83512;BME280;73446;0.000;0.000;2024-01-27T09:48:35;100706.59;;;20.04;34.04
83512;BME280;73446;0.000;0.000;2024-01-27T09:51:20;100701.25;;;20.04;33.14
83512;BME280;73446;0.000;0.000;2024-01-27T09:54:04;100699.84;;;20.01;33.21
83512;BME280;73446;0.000;0.000;2024-01-27T09:56:49;100706.59;;;20.04;32.83
83512;BME280;73446;0.000;0.000;2024-01-27T09:59:36;100708.81;;;20.07;32.01
83512;BME280;73446;0.000;0.000;2024-01-27T10:02:20;100696.88;;;20.09;31.41
83512;BME280;73446;0.000;0.000;2024-01-27T10:05:05;100694.81;;;20.11;31.57
83512;BME280;73446;0.000;0.000;2024-01-27T10:07:50;100689.78;;;20.15;31.94
83512;BME280;73446;0.000;0.000;2024-01-27T10:10:35;100683.41;;;20.16;32.03
83512;BME280;73446;0.000;0.000;2024-01-27T10:13:19;100671.69;;;20.17;32.03
83512;BME280;73446;0.000;0.000;2024-01-27T10:16:09;100664.28;;;20.19;31.78
83512;BME280;73446;0.000;0.000;2024-01-27T10:19:02;100659.75;;;20.19;32.18
83512;BME280;73446;0.000;0.000;2024-01-27T10:21:46;100664.28;;;20.19;32.25
83512;BME280;73446;0.000;0.000;2024-01-27T10:24:34;100663.81;;;20.22;31.89
83512;BME280;73446;0.000;0.000;2024-01-27T10:27:19;100650.25;;;20.23;31.95
83512;BME280;73446;0.000;0.000;2024-01-27T10:30:03;100651.06;;;20.24;31.66
83512;BME280;73446;0.000;0.000;2024-01-27T10:32:56;100650.84;;;20.25;31.55
83512;BME280;73446;0.000;0.000;2024-01-27T10:35:42;100664.56;;;20.29;31.69
83512;BME280;73446;0.000;0.000;2024-01-27T10:41:24;100679.03;;;20.33;32.22
83512;BME280;73446;0.000;0.000;2024-01-27T10:44:14;100677.19;;;20.34;33.31
83512;BME280;73446;0.000;0.000;2024-01-27T10:47:01;100670.59;;;20.36;33.67
83512;BME280;73446;0.000;0.000;2024-01-27T10:49:47;100665.28;;;20.36;32.73
83512;BME280;73446;0.000;0.000;2024-01-27T10:52:32;100664.44;;;20.36;34.13
83512;BME280;73446;0.000;0.000;2024-01-27T10:55:16;100658.88;;;20.37;35.04
83512;BME280;73446;0.000;0.000;2024-01-27T10:58:01;100666.00;;;20.43;38.06
83512;BME280;73446;0.000;0.000;2024-01-27T11:00:48;100667.03;;;20.42;36.74
83512;BME280;73446;0.000;0.000;2024-01-27T11:03:34;100668.66;;;20.43;38.34
83512;BME280;73446;0.000;0.000;2024-01-27T11:06:21;100670.84;;;20.46;38.20
83512;BME280;73446;0.000;0.000;2024-01-27T11:09:08;100672.47;;;20.47;38.67
83512;BME280;73446;0.000;0.000;2024-01-27T11:11:53;100658.78;;;20.55;40.77
83512;BME280;73446;0.000;0.000;2024-01-27T11:14:37;100657.53;;;20.58;39.87
83512;BME280;73446;0.000;0.000;2024-01-27T11:17:21;100656.47;;;20.59;39.11
83512;BME280;73446;0.000;0.000;2024-01-27T11:20:05;100658.44;;;20.64;38.67
83512;BME280;73446;0.000;0.000;2024-01-27T11:22:50;100662.50;;;20.66;38.53
83512;BME280;73446;0.000;0.000;2024-01-27T11:25:36;100656.00;;;20.62;38.35
83512;BME280;73446;0.000;0.000;2024-01-27T11:28:25;100662.16;;;20.63;38.09
83512;BME280;73446;0.000;0.000;2024-01-27T11:31:09;100648.78;;;20.63;37.93
83512;BME280;73446;0.000;0.000;2024-01-27T11:33:53;100654.13;;;20.63;37.73
83512;BME280;73446;0.000;0.000;2024-01-27T11:36:38;100652.53;;;20.62;37.27
83512;BME280;73446;0.000;0.000;2024-01-27T11:39:28;100644.97;;;20.58;37.45
83512;BME280;73446;0.000;0.000;2024-01-27T11:42:13;100638.00;;;20.57;37.02
83512;BME280;73446;0.000;0.000;2024-01-27T11:44:57;100625.13;;;20.54;36.96
83512;BME280;73446;0.000;0.000;2024-01-27T11:47:41;100628.00;;;20.53;37.07
83512;BME280;73446;0.000;0.000;2024-01-27T11:50:25;100625.56;;;20.51;36.85
83512;BME280;73446;0.000;0.000;2024-01-27T11:53:09;100607.47;;;20.53;36.63
83512;BME280;73446;0.000;0.000;2024-01-27T11:55:54;100608.50;;;20.52;37.23
83512;BME280;73446;0.000;0.000;2024-01-27T11:58:46;100613.84;;;20.52;36.56
83512;BME280;73446;0.000;0.000;2024-01-27T12:01:30;100611.88;;;20.59;38.94
83512;BME280;73446;0.000;0.000;2024-01-27T12:04:14;100612.22;;;20.63;37.92
83512;BME280;73446;0.000;0.000;2024-01-27T12:06:58;100604.53;;;20.67;38.46
83512;BME280;73446;0.000;0.000;2024-01-27T12:09:44;100598.41;;;20.78;38.92
83512;BME280;73446;0.000;0.000;2024-01-27T12:12:28;100597.09;;;20.80;37.89
83512;BME280;73446;0.000;0.000;2024-01-27T12:15:12;100599.53;;;20.82;37.54
83512;BME280;73446;0.000;0.000;2024-01-27T12:17:58;100597.91;;;20.81;37.53
83512;BME280;73446;0.000;0.000;2024-01-27T12:20:42;100593.84;;;20.78;37.37
83512;BME280;73446;0.000;0.000;2024-01-27T12:23:26;100597.59;;;20.77;37.21
83512;BME280;73446;0.000;0.000;2024-01-27T12:26:14;100590.84;;;20.75;37.16
83512;BME280;73446;0.000;0.000;2024-01-27T12:28:59;100592.34;;;20.71;36.75
83512;BME280;73446;0.000;0.000;2024-01-27T12:31:43;100596.06;;;20.70;36.85
83512;BME280;73446;0.000;0.000;2024-01-27T12:34:28;100598.16;;;20.68;36.54
83512;BME280;73446;0.000;0.000;2024-01-27T12:37:13;100590.38;;;20.66;36.56
83512;BME280;73446;0.000;0.000;2024-01-27T12:39:57;100592.22;;;20.66;36.35
83512;BME280;73446;0.000;0.000;2024-01-27T12:42:41;100586.31;;;20.64;36.17
83512;BME280;73446;0.000;0.000;2024-01-27T12:45:25;100586.78;;;20.60;35.81
83512;BME280;73446;0.000;0.000;2024-01-27T12:48:08;100583.31;;;20.60;35.90
83512;BME280;73446;0.000;0.000;2024-01-27T12:50:52;100587.25;;;20.57;35.51
83512;BME280;73446;0.000;0.000;2024-01-27T12:53:39;100584.00;;;20.55;35.50
83512;BME280;73446;0.000;0.000;2024-01-27T12:56:25;100573.31;;;20.55;35.44
83512;BME280;73446;0.000;0.000;2024-01-27T12:59:09;100577.03;;;20.54;35.49
83512;BME280;73446;0.000;0.000;2024-01-27T13:01:53;100575.41;;;20.53;35.17
83512;BME280;73446;0.000;0.000;2024-01-27T13:04:37;100568.44;;;20.52;34.79
83512;BME280;73446;0.000;0.000;2024-01-27T13:07:21;100564.97;;;20.52;35.05
83512;BME280;73446;0.000;0.000;2024-01-27T13:10:06;100571.34;;;20.51;34.92
83512;BME280;73446;0.000;0.000;2024-01-27T13:12:50;100571.34;;;20.51;34.84
83512;BME280;73446;0.000;0.000;2024-01-27T13:15:34;100565.66;;;20.47;34.63
83512;BME280;73446;0.000;0.000;2024-01-27T13:18:18;100557.63;;;20.47;35.04
83512;BME280;73446;0.000;0.000;2024-01-27T13:21:02;100548.00;;;20.46;35.46
83512;BME280;73446;0.000;0.000;2024-01-27T13:23:47;100556.00;;;20.46;34.83
83512;BME280;73446;0.000;0.000;2024-01-27T13:26:32;100546.41;;;20.45;34.48
83512;BME280;73446;0.000;0.000;2024-01-27T13:29:16;100542.66;;;20.46;34.97
83512;BME280;73446;0.000;0.000;2024-01-27T13:32:00;100542.09;;;20.44;34.83
83512;BME280;73446;0.000;0.000;2024-01-27T13:34:45;100545.59;;;20.45;35.14
83512;BME280;73446;0.000;0.000;2024-01-27T13:37:29;100530.03;;;20.42;35.03
83512;BME280;73446;0.000;0.000;2024-01-27T13:40:17;100539.91;;;20.41;34.86
83512;BME280;73446;0.000;0.000;2024-01-27T13:43:01;100542.34;;;20.43;34.72
83512;BME280;73446;0.000;0.000;2024-01-27T13:45:45;100541.28;;;20.44;34.80
83512;BME280;73446;0.000;0.000;2024-01-27T13:48:34;100542.34;;;20.43;34.48
83512;BME280;73446;0.000;0.000;2024-01-27T13:51:17;100546.63;;;20.44;34.43
83512;BME280;73446;0.000;0.000;2024-01-27T13:54:01;100543.72;;;20.45;34.54
83512;BME280;73446;0.000;0.000;2024-01-27T13:56:46;100540.47;;;20.43;34.48
83512;BME280;73446;0.000;0.000;2024-01-27T13:59:31;100534.09;;;20.44;34.67
83512;BME280;73446;0.000;0.000;2024-01-27T14:02:16;100543.72;;;20.45;34.82
83512;BME280;73446;0.000;0.000;2024-01-27T14:05:00;100534.09;;;20.44;34.48
83512;BME280;73446;0.000;0.000;2024-01-27T14:07:44;100534.09;;;20.44;34.70
83512;BME280;73446;0.000;0.000;2024-01-27T14:10:28;100537.81;;;20.43;34.52
83512;BME280;73446;0.000;0.000;2024-01-27T14:13:12;100530.84;;;20.42;34.86
83512;BME280;73446;0.000;0.000;2024-01-27T14:15:58;100532.47;;;20.43;34.39
83512;BME280;73446;0.000;0.000;2024-01-27T14:18:42;100532.47;;;20.43;34.56
83512;BME280;73446;0.000;0.000;2024-01-27T14:21:26;100532.47;;;20.43;34.65
83512;BME280;73446;0.000;0.000;2024-01-27T14:24:12;100527.59;;;20.40;34.42
83512;BME280;73446;0.000;0.000;2024-01-27T14:26:55;100519.81;;;20.39;34.66
83512;BME280;73446;0.000;0.000;2024-01-27T14:29:39;100518.19;;;20.38;34.76
83512;BME280;73446;0.000;0.000;2024-01-27T14:32:23;100515.41;;;20.44;34.98
83512;BME280;73446;0.000;0.000;2024-01-27T14:35:08;100512.81;;;20.49;34.72